Aviation Digital Data Service (ADDS)

Output produced by METARs form (1520 UTC 23 January 2019)
found at http://www.aviationweather.gov/metar/data/
 
METAR text: SOCA 231500Z AUTO 03013KT 9999 FEW028 SCT033 OVC066 28/21 Q1016 TEMPO 3000 SHRA FEW015TCU
Conditions at: SOCA (CAYENNE/ROCHAMBE, GY) observed 1500 UTC 23 January 2019
Temperature: 28.0°C (82°F)
Dewpoint: 21.0°C (70°F) [RH = 66%]
Pressure (altimeter): 30.00 inches Hg (1016.0 mb)
Winds: from the NNE (30 degrees) at 15 MPH (13 knots; 6.7 m/s)
Visibility: 6 or more miles (10+ km)
Ceiling: 6600 feet AGL
Clouds: few clouds at 2800 feet AGL
scattered clouds at 3300 feet AGL
overcast cloud deck at 6600 feet AGL
Weather: no significant weather observed at this time

METAR text: SOCA 231430Z AUTO 05015KT 9999 BKN028 BKN037 OVC070 28/22 Q1016 TEMPO 3000 SHRA FEW015TCU
Conditions at: SOCA (CAYENNE/ROCHAMBE, GY) observed 1430 UTC 23 January 2019
Temperature: 28.0°C (82°F)
Dewpoint: 22.0°C (72°F) [RH = 70%]
Pressure (altimeter): 30.00 inches Hg (1016.0 mb)
Winds: from the NE (50 degrees) at 17 MPH (15 knots; 7.7 m/s)
Visibility: 6 or more miles (10+ km)
Ceiling: 2800 feet AGL
Clouds: broken clouds at 2800 feet AGL
broken clouds at 3700 feet AGL
overcast cloud deck at 7000 feet AGL
Weather: no significant weather observed at this time

METAR text: SOCA 231400Z AUTO 05013KT 9999 SCT028 BKN036 BKN064 28/22 Q1016 TEMPO 3000 SHRA FEW015TCU
Conditions at: SOCA (CAYENNE/ROCHAMBE, GY) observed 1400 UTC 23 January 2019
Temperature: 28.0°C (82°F)
Dewpoint: 22.0°C (72°F) [RH = 70%]
Pressure (altimeter): 30.00 inches Hg (1016.0 mb)
Winds: from the NE (50 degrees) at 15 MPH (13 knots; 6.7 m/s)
Visibility: 6 or more miles (10+ km)
Ceiling: 3600 feet AGL
Clouds: scattered clouds at 2800 feet AGL
broken clouds at 3600 feet AGL
broken clouds at 6400 feet AGL
Weather: no significant weather observed at this time

METAR text: SOCA 231330Z AUTO 05014KT 020V080 9999 BKN029 BKN034 OVC060 29/22 Q1016 TEMPO 3000 SHRA FEW015TCU
Conditions at: SOCA (CAYENNE/ROCHAMBE, GY) observed 1330 UTC 23 January 2019
Temperature: 29.0°C (84°F)
Dewpoint: 22.0°C (72°F) [RH = 66%]
Pressure (altimeter): 30.00 inches Hg (1016.0 mb)
Winds: from the NE (50 degrees) at 16 MPH (14 knots; 7.2 m/s)
Visibility: 6 or more miles (10+ km)
Ceiling: 2900 feet AGL
Clouds: broken clouds at 2900 feet AGL
broken clouds at 3400 feet AGL
overcast cloud deck at 6000 feet AGL
Weather: no significant weather observed at this time

METAR text: SOCA 231300Z AUTO 05011KT 9999 SCT027 BKN034 BKN041 28/22 Q1016 NOSIG
Conditions at: SOCA (CAYENNE/ROCHAMBE, GY) observed 1300 UTC 23 January 2019
Temperature: 28.0°C (82°F)
Dewpoint: 22.0°C (72°F) [RH = 70%]
Pressure (altimeter): 30.00 inches Hg (1016.0 mb)
Winds: from the NE (50 degrees) at 13 MPH (11 knots; 5.7 m/s)
Visibility: 6 or more miles (10+ km)
Ceiling: 3400 feet AGL
Clouds: scattered clouds at 2700 feet AGL
broken clouds at 3400 feet AGL
broken clouds at 4100 feet AGL
Weather: no significant weather observed at this time

METAR text: SOCA 231230Z AUTO 04010KT 9999 FEW026 SCT031 BKN048 27/22 Q1016 NOSIG
Conditions at: SOCA (CAYENNE/ROCHAMBE, GY) observed 1230 UTC 23 January 2019
Temperature: 27.0°C (81°F)
Dewpoint: 22.0°C (72°F) [RH = 74%]
Pressure (altimeter): 30.00 inches Hg (1016.0 mb)
Winds: from the NE (40 degrees) at 12 MPH (10 knots; 5.1 m/s)
Visibility: 6 or more miles (10+ km)
Ceiling: 4800 feet AGL
Clouds: few clouds at 2600 feet AGL
scattered clouds at 3100 feet AGL
broken clouds at 4800 feet AGL
Weather: no significant weather observed at this time

METAR text: SOCA 231200Z AUTO 04008KT 9999 FEW029 OVC058 27/22 Q1015 NOSIG
Conditions at: SOCA (CAYENNE/ROCHAMBE, GY) observed 1200 UTC 23 January 2019
Temperature: 27.0°C (81°F)
Dewpoint: 22.0°C (72°F) [RH = 74%]
Pressure (altimeter): 29.97 inches Hg (1015.0 mb)
Winds: from the NE (40 degrees) at 9 MPH (8 knots; 4.1 m/s)
Visibility: 6 or more miles (10+ km)
Ceiling: 5800 feet AGL
Clouds: few clouds at 2900 feet AGL
overcast cloud deck at 5800 feet AGL
Weather: no significant weather observed at this time

METAR text: SOCA 231130Z AUTO 04006KT 9999 FEW032 BKN060 OVC070 26/22 Q1015 NOSIG
Conditions at: SOCA (CAYENNE/ROCHAMBE, GY) observed 1130 UTC 23 January 2019
Temperature: 26.0°C (79°F)
Dewpoint: 22.0°C (72°F) [RH = 79%]
Pressure (altimeter): 29.97 inches Hg (1015.0 mb)
Winds: from the NE (40 degrees) at 7 MPH (6 knots; 3.1 m/s)
Visibility: 6 or more miles (10+ km)
Ceiling: 6000 feet AGL
Clouds: few clouds at 3200 feet AGL
broken clouds at 6000 feet AGL
overcast cloud deck at 7000 feet AGL
Weather: no significant weather observed at this time

METAR text: SOCA 231100Z AUTO 05007KT 9999 FEW033 OVC056 26/22 Q1015 NOSIG
Conditions at: SOCA (CAYENNE/ROCHAMBE, GY) observed 1100 UTC 23 January 2019
Temperature: 26.0°C (79°F)
Dewpoint: 22.0°C (72°F) [RH = 79%]
Pressure (altimeter): 29.97 inches Hg (1015.0 mb)
Winds: from the NE (50 degrees) at 8 MPH (7 knots; 3.6 m/s)
Visibility: 6 or more miles (10+ km)
Ceiling: 5600 feet AGL
Clouds: few clouds at 3300 feet AGL
overcast cloud deck at 5600 feet AGL
Weather: no significant weather observed at this time

METAR text: SOCA 231030Z AUTO 05006KT 9999 FEW048 BKN062 OVC170 26/21 Q1014 NOSIG
Conditions at: SOCA (CAYENNE/ROCHAMBE, GY) observed 1030 UTC 23 January 2019
Temperature: 26.0°C (79°F)
Dewpoint: 21.0°C (70°F) [RH = 74%]
Pressure (altimeter): 29.94 inches Hg (1014.0 mb)
Winds: from the NE (50 degrees) at 7 MPH (6 knots; 3.1 m/s)
Visibility: 6 or more miles (10+ km)
Ceiling: 6200 feet AGL
Clouds: few clouds at 4800 feet AGL
broken clouds at 6200 feet AGL
overcast cloud deck at 17000 feet AGL
Weather: no significant weather observed at this time

METAR text: SOCA 231000Z AUTO 04007KT 9999 FEW033 OVC062 26/21 Q1014 NOSIG
Conditions at: SOCA (CAYENNE/ROCHAMBE, GY) observed 1000 UTC 23 January 2019
Temperature: 26.0°C (79°F)
Dewpoint: 21.0°C (70°F) [RH = 74%]
Pressure (altimeter): 29.94 inches Hg (1014.0 mb)
Winds: from the NE (40 degrees) at 8 MPH (7 knots; 3.6 m/s)
Visibility: 6 or more miles (10+ km)
Ceiling: 6200 feet AGL
Clouds: few clouds at 3300 feet AGL
overcast cloud deck at 6200 feet AGL
Weather: no significant weather observed at this time

METAR text: SOCA 230930Z AUTO 04006KT CAVOK 25/22 Q1014 NOSIG
Conditions at: SOCA (CAYENNE/ROCHAMBE, GY) observed 0930 UTC 23 January 2019
Temperature: 25.0°C (77°F)
Dewpoint: 22.0°C (72°F) [RH = 83%]
Pressure (altimeter): 29.94 inches Hg (1014.0 mb)
Winds: from the NE (40 degrees) at 7 MPH (6 knots; 3.1 m/s)
Visibility: 6 or more miles (10+ km)
Ceiling: ceiling and visibility are OK
Clouds: unknown
Weather: no significant weather observed at this time

METAR text: SOCA 230900Z AUTO 04007KT 9999 FEW025 BKN060 OVC170 25/22 Q1013
Conditions at: SOCA (CAYENNE/ROCHAMBE, GY) observed 0900 UTC 23 January 2019
Temperature: 25.0°C (77°F)
Dewpoint: 22.0°C (72°F) [RH = 83%]
Pressure (altimeter): 29.91 inches Hg (1013.0 mb)
Winds: from the NE (40 degrees) at 8 MPH (7 knots; 3.6 m/s)
Visibility: 6 or more miles (10+ km)
Ceiling: 6000 feet AGL
Clouds: few clouds at 2500 feet AGL
broken clouds at 6000 feet AGL
overcast cloud deck at 17000 feet AGL
Weather: no significant weather observed at this time

METAR text: SOCA 230830Z AUTO 03006KT 9999 FEW022 OVC170 25/22 Q1013
Conditions at: SOCA (CAYENNE/ROCHAMBE, GY) observed 0830 UTC 23 January 2019
Temperature: 25.0°C (77°F)
Dewpoint: 22.0°C (72°F) [RH = 83%]
Pressure (altimeter): 29.91 inches Hg (1013.0 mb)
Winds: from the NNE (30 degrees) at 7 MPH (6 knots; 3.1 m/s)
Visibility: 6 or more miles (10+ km)
Ceiling: 17000 feet AGL
Clouds: few clouds at 2200 feet AGL
overcast cloud deck at 17000 feet AGL
Weather: no significant weather observed at this time

METAR text: SOCA 230800Z AUTO 02006KT 9999 FEW026 OVC170 25/21 Q1013
Conditions at: SOCA (CAYENNE/ROCHAMBE, GY) observed 0800 UTC 23 January 2019
Temperature: 25.0°C (77°F)
Dewpoint: 21.0°C (70°F) [RH = 79%]
Pressure (altimeter): 29.91 inches Hg (1013.0 mb)
Winds: from the NNE (20 degrees) at 7 MPH (6 knots; 3.1 m/s)
Visibility: 6 or more miles (10+ km)
Ceiling: 17000 feet AGL
Clouds: few clouds at 2600 feet AGL
overcast cloud deck at 17000 feet AGL
Weather: no significant weather observed at this time

METAR text: SOCA 230730Z AUTO 03006KT CAVOK 25/22 Q1013
Conditions at: SOCA (CAYENNE/ROCHAMBE, GY) observed 0730 UTC 23 January 2019
Temperature: 25.0°C (77°F)
Dewpoint: 22.0°C (72°F) [RH = 83%]
Pressure (altimeter): 29.91 inches Hg (1013.0 mb)
Winds: from the NNE (30 degrees) at 7 MPH (6 knots; 3.1 m/s)
Visibility: 6 or more miles (10+ km)
Ceiling: ceiling and visibility are OK
Clouds: unknown
Weather: no significant weather observed at this time

METAR text: SOCA 230700Z AUTO 03006KT 9999 FEW027 SCT150 OVC170 25/22 Q1013
Conditions at: SOCA (CAYENNE/ROCHAMBE, GY) observed 0700 UTC 23 January 2019
Temperature: 25.0°C (77°F)
Dewpoint: 22.0°C (72°F) [RH = 83%]
Pressure (altimeter): 29.91 inches Hg (1013.0 mb)
Winds: from the NNE (30 degrees) at 7 MPH (6 knots; 3.1 m/s)
Visibility: 6 or more miles (10+ km)
Ceiling: 17000 feet AGL
Clouds: few clouds at 2700 feet AGL
scattered clouds at 15000 feet AGL
overcast cloud deck at 17000 feet AGL
Weather: no significant weather observed at this time

METAR text: SOCA 230630Z AUTO 03006KT 9999 FEW034 OVC170 25/22 Q1013
Conditions at: SOCA (CAYENNE/ROCHAMBE, GY) observed 0630 UTC 23 January 2019
Temperature: 25.0°C (77°F)
Dewpoint: 22.0°C (72°F) [RH = 83%]
Pressure (altimeter): 29.91 inches Hg (1013.0 mb)
Winds: from the NNE (30 degrees) at 7 MPH (6 knots; 3.1 m/s)
Visibility: 6 or more miles (10+ km)
Ceiling: 17000 feet AGL
Clouds: few clouds at 3400 feet AGL
overcast cloud deck at 17000 feet AGL
Weather: no significant weather observed at this time

METAR text: SOCA 230600Z AUTO 02006KT 9999 FEW020 OVC170 24/22 Q1013
Conditions at: SOCA (CAYENNE/ROCHAMBE, GY) observed 0600 UTC 23 January 2019
Temperature: 24.0°C (75°F)
Dewpoint: 22.0°C (72°F) [RH = 89%]
Pressure (altimeter): 29.91 inches Hg (1013.0 mb)
Winds: from the NNE (20 degrees) at 7 MPH (6 knots; 3.1 m/s)
Visibility: 6 or more miles (10+ km)
Ceiling: 17000 feet AGL
Clouds: few clouds at 2000 feet AGL
overcast cloud deck at 17000 feet AGL
Weather: no significant weather observed at this time

METAR text: SOCA 230530Z AUTO 00000KT 9999 FEW021 SCT026 BKN040 23/22 Q1014
Conditions at: SOCA (CAYENNE/ROCHAMBE, GY) observed 0530 UTC 23 January 2019
Temperature: 23.0°C (73°F)
Dewpoint: 22.0°C (72°F) [RH = 94%]
Pressure (altimeter): 29.94 inches Hg (1014.0 mb)
Winds: calm
Visibility: 6 or more miles (10+ km)
Ceiling: 4000 feet AGL
Clouds: few clouds at 2100 feet AGL
scattered clouds at 2600 feet AGL
broken clouds at 4000 feet AGL
Weather: no significant weather observed at this time

METAR text: SOCA 230500Z AUTO 00000KT 9999 FEW022 23/22 Q1014 NOSIG
Conditions at: SOCA (CAYENNE/ROCHAMBE, GY) observed 0500 UTC 23 January 2019
Temperature: 23.0°C (73°F)
Dewpoint: 22.0°C (72°F) [RH = 94%]
Pressure (altimeter): 29.94 inches Hg (1014.0 mb)
Winds: calm
Visibility: 6 or more miles (10+ km)
Ceiling: at least 12,000 feet AGL
Clouds: few clouds at 2200 feet AGL
Weather: no significant weather observed at this time

METAR text: SOCA 230430Z AUTO 00000KT 9999 FEW019 24/22 Q1014 NOSIG
Conditions at: SOCA (CAYENNE/ROCHAMBE, GY) observed 0430 UTC 23 January 2019
Temperature: 24.0°C (75°F)
Dewpoint: 22.0°C (72°F) [RH = 89%]
Pressure (altimeter): 29.94 inches Hg (1014.0 mb)
Winds: calm
Visibility: 6 or more miles (10+ km)
Ceiling: at least 12,000 feet AGL
Clouds: few clouds at 1900 feet AGL
Weather: no significant weather observed at this time

METAR text: SOCA 230400Z AUTO 00000KT 9999 FEW023 24/22 Q1015 NOSIG
Conditions at: SOCA (CAYENNE/ROCHAMBE, GY) observed 0400 UTC 23 January 2019
Temperature: 24.0°C (75°F)
Dewpoint: 22.0°C (72°F) [RH = 89%]
Pressure (altimeter): 29.97 inches Hg (1015.0 mb)
Winds: calm
Visibility: 6 or more miles (10+ km)
Ceiling: at least 12,000 feet AGL
Clouds: few clouds at 2300 feet AGL
Weather: no significant weather observed at this time

METAR text: SOCA 230330Z AUTO 00000KT 9999 FEW020 24/22 Q1015 NOSIG
Conditions at: SOCA (CAYENNE/ROCHAMBE, GY) observed 0330 UTC 23 January 2019
Temperature: 24.0°C (75°F)
Dewpoint: 22.0°C (72°F) [RH = 89%]
Pressure (altimeter): 29.97 inches Hg (1015.0 mb)
Winds: calm
Visibility: 6 or more miles (10+ km)
Ceiling: at least 12,000 feet AGL
Clouds: few clouds at 2000 feet AGL
Weather: no significant weather observed at this time

METAR text: SOCA 230300Z AUTO 00000KT 9999 FEW021 25/22 Q1015 NOSIG
Conditions at: SOCA (CAYENNE/ROCHAMBE, GY) observed 0300 UTC 23 January 2019
Temperature: 25.0°C (77°F)
Dewpoint: 22.0°C (72°F) [RH = 83%]
Pressure (altimeter): 29.97 inches Hg (1015.0 mb)
Winds: calm
Visibility: 6 or more miles (10+ km)
Ceiling: at least 12,000 feet AGL
Clouds: few clouds at 2100 feet AGL
Weather: no significant weather observed at this time

METAR text: SOCA 230230Z AUTO 06003KT 9999 SCT024 25/22 Q1015 NOSIG
Conditions at: SOCA (CAYENNE/ROCHAMBE, GY) observed 0230 UTC 23 January 2019
Temperature: 25.0°C (77°F)
Dewpoint: 22.0°C (72°F) [RH = 83%]
Pressure (altimeter): 29.97 inches Hg (1015.0 mb)
Winds: from the ENE (60 degrees) at 3 MPH (3 knots; 1.5 m/s)
Visibility: 6 or more miles (10+ km)
Ceiling: at least 12,000 feet AGL
Clouds: scattered clouds at 2400 feet AGL
Weather: no significant weather observed at this time

METAR text: SOCA 230200Z AUTO VRB01KT 9999 FEW021 25/22 Q1015 NOSIG
Conditions at: SOCA (CAYENNE/ROCHAMBE, GY) observed 0200 UTC 23 January 2019
Temperature: 25.0°C (77°F)
Dewpoint: 22.0°C (72°F) [RH = 83%]
Pressure (altimeter): 29.97 inches Hg (1015.0 mb)
Winds: variable direction winds at 1 MPH (1 knots; 0.5 m/s)
Visibility: 6 or more miles (10+ km)
Ceiling: at least 12,000 feet AGL
Clouds: few clouds at 2100 feet AGL
Weather: no significant weather observed at this time

METAR text: SOCA 230130Z AUTO 07002KT 9999 FEW020 25/22 Q1015 NOSIG
Conditions at: SOCA (CAYENNE/ROCHAMBE, GY) observed 0130 UTC 23 January 2019
Temperature: 25.0°C (77°F)
Dewpoint: 22.0°C (72°F) [RH = 83%]
Pressure (altimeter): 29.97 inches Hg (1015.0 mb)
Winds: from the ENE (70 degrees) at 2 MPH (2 knots; 1.0 m/s)
Visibility: 6 or more miles (10+ km)
Ceiling: at least 12,000 feet AGL
Clouds: few clouds at 2000 feet AGL
Weather: no significant weather observed at this time

METAR text: SOCA 230100Z AUTO 08003KT 9999 BKN020 25/22 Q1016 NOSIG
Conditions at: SOCA (CAYENNE/ROCHAMBE, GY) observed 0100 UTC 23 January 2019
Temperature: 25.0°C (77°F)
Dewpoint: 22.0°C (72°F) [RH = 83%]
Pressure (altimeter): 30.00 inches Hg (1016.0 mb)
Winds: from the E (80 degrees) at 3 MPH (3 knots; 1.5 m/s)
Visibility: 6 or more miles (10+ km)
Ceiling: 2000 feet AGL
Clouds: broken clouds at 2000 feet AGL
Weather: no significant weather observed at this time

METAR text: SOCA 230030Z AUTO 07005KT CAVOK 26/22 Q1015 NOSIG
Conditions at: SOCA (CAYENNE/ROCHAMBE, GY) observed 0030 UTC 23 January 2019
Temperature: 26.0°C (79°F)
Dewpoint: 22.0°C (72°F) [RH = 79%]
Pressure (altimeter): 29.97 inches Hg (1015.0 mb)
Winds: from the ENE (70 degrees) at 6 MPH (5 knots; 2.6 m/s)
Visibility: 6 or more miles (10+ km)
Ceiling: ceiling and visibility are OK
Clouds: unknown
Weather: no significant weather observed at this time

METAR text: SOCA 230000Z AUTO 06004KT 9999 SCT022 SCT030 26/22 Q1015 NOSIG
Conditions at: SOCA (CAYENNE/ROCHAMBE, GY) observed 0000 UTC 23 January 2019
Temperature: 26.0°C (79°F)
Dewpoint: 22.0°C (72°F) [RH = 79%]
Pressure (altimeter): 29.97 inches Hg (1015.0 mb)
Winds: from the ENE (60 degrees) at 5 MPH (4 knots; 2.1 m/s)
Visibility: 6 or more miles (10+ km)
Ceiling: at least 12,000 feet AGL
Clouds: scattered clouds at 2200 feet AGL
scattered clouds at 3000 feet AGL
Weather: no significant weather observed at this time

METAR text: SOCA 222330Z AUTO 05006KT 9999 FEW021 26/22 Q1014 NOSIG
Conditions at: SOCA (CAYENNE/ROCHAMBE, GY) observed 2330 UTC 22 January 2019
Temperature: 26.0°C (79°F)
Dewpoint: 22.0°C (72°F) [RH = 79%]
Pressure (altimeter): 29.94 inches Hg (1014.0 mb)
Winds: from the NE (50 degrees) at 7 MPH (6 knots; 3.1 m/s)
Visibility: 6 or more miles (10+ km)
Ceiling: at least 12,000 feet AGL
Clouds: few clouds at 2100 feet AGL
Weather: no significant weather observed at this time

METAR text: SOCA 222300Z AUTO 03006KT 9999 BKN023 BKN064 26/22 Q1014 NOSIG
Conditions at: SOCA (CAYENNE/ROCHAMBE, GY) observed 2300 UTC 22 January 2019
Temperature: 26.0°C (79°F)
Dewpoint: 22.0°C (72°F) [RH = 79%]
Pressure (altimeter): 29.94 inches Hg (1014.0 mb)
Winds: from the NNE (30 degrees) at 7 MPH (6 knots; 3.1 m/s)
Visibility: 6 or more miles (10+ km)
Ceiling: 2300 feet AGL
Clouds: broken clouds at 2300 feet AGL
broken clouds at 6400 feet AGL
Weather: no significant weather observed at this time

METAR text: SOCA 222230Z AUTO 05006KT 9999 SCT023 SCT036 BKN064 26/22 Q1014 NOSIG
Conditions at: SOCA (CAYENNE/ROCHAMBE, GY) observed 2230 UTC 22 January 2019
Temperature: 26.0°C (79°F)
Dewpoint: 22.0°C (72°F) [RH = 79%]
Pressure (altimeter): 29.94 inches Hg (1014.0 mb)
Winds: from the NE (50 degrees) at 7 MPH (6 knots; 3.1 m/s)
Visibility: 6 or more miles (10+ km)
Ceiling: 6400 feet AGL
Clouds: scattered clouds at 2300 feet AGL
scattered clouds at 3600 feet AGL
broken clouds at 6400 feet AGL
Weather: no significant weather observed at this time

METAR text: SOCA 222200Z AUTO 04007KT 9999 BKN022 BKN027 BKN072 27/22 Q1014 NOSIG
Conditions at: SOCA (CAYENNE/ROCHAMBE, GY) observed 2200 UTC 22 January 2019
Temperature: 27.0°C (81°F)
Dewpoint: 22.0°C (72°F) [RH = 74%]
Pressure (altimeter): 29.94 inches Hg (1014.0 mb)
Winds: from the NE (40 degrees) at 8 MPH (7 knots; 3.6 m/s)
Visibility: 6 or more miles (10+ km)
Ceiling: 2200 feet AGL
Clouds: broken clouds at 2200 feet AGL
broken clouds at 2700 feet AGL
broken clouds at 7200 feet AGL
Weather: no significant weather observed at this time

METAR text: SOCA 222130Z AUTO 04009KT 9999 SCT023 SCT056 OVC070 27/22 Q1013 NOSIG
Conditions at: SOCA (CAYENNE/ROCHAMBE, GY) observed 2130 UTC 22 January 2019
Temperature: 27.0°C (81°F)
Dewpoint: 22.0°C (72°F) [RH = 74%]
Pressure (altimeter): 29.91 inches Hg (1013.0 mb)
Winds: from the NE (40 degrees) at 10 MPH (9 knots; 4.6 m/s)
Visibility: 6 or more miles (10+ km)
Ceiling: 7000 feet AGL
Clouds: scattered clouds at 2300 feet AGL
scattered clouds at 5600 feet AGL
overcast cloud deck at 7000 feet AGL
Weather: no significant weather observed at this time

METAR text: SOCA 222100Z AUTO 04010KT 9999 SCT024 SCT036 OVC056 27/23 Q1013 NOSIG
Conditions at: SOCA (CAYENNE/ROCHAMBE, GY) observed 2100 UTC 22 January 2019
Temperature: 27.0°C (81°F)
Dewpoint: 23.0°C (73°F) [RH = 79%]
Pressure (altimeter): 29.91 inches Hg (1013.0 mb)
Winds: from the NE (40 degrees) at 12 MPH (10 knots; 5.1 m/s)
Visibility: 6 or more miles (10+ km)
Ceiling: 5600 feet AGL
Clouds: scattered clouds at 2400 feet AGL
scattered clouds at 3600 feet AGL
overcast cloud deck at 5600 feet AGL
Weather: no significant weather observed at this time

METAR text: SOCA 222030Z AUTO 04009KT 9999 SCT024 SCT030 OVC060 28/23 Q1013 NOSIG
Conditions at: SOCA (CAYENNE/ROCHAMBE, GY) observed 2030 UTC 22 January 2019
Temperature: 28.0°C (82°F)
Dewpoint: 23.0°C (73°F) [RH = 74%]
Pressure (altimeter): 29.91 inches Hg (1013.0 mb)
Winds: from the NE (40 degrees) at 10 MPH (9 knots; 4.6 m/s)
Visibility: 6 or more miles (10+ km)
Ceiling: 6000 feet AGL
Clouds: scattered clouds at 2400 feet AGL
scattered clouds at 3000 feet AGL
overcast cloud deck at 6000 feet AGL
Weather: no significant weather observed at this time

METAR text: SOCA 222000Z AUTO 04009KT 9999 FEW023 BKN066 28/23 Q1012 NOSIG
Conditions at: SOCA (CAYENNE/ROCHAMBE, GY) observed 2000 UTC 22 January 2019
Temperature: 28.0°C (82°F)
Dewpoint: 23.0°C (73°F) [RH = 74%]
Pressure (altimeter): 29.88 inches Hg (1012.0 mb)
Winds: from the NE (40 degrees) at 10 MPH (9 knots; 4.6 m/s)
Visibility: 6 or more miles (10+ km)
Ceiling: 6600 feet AGL
Clouds: few clouds at 2300 feet AGL
broken clouds at 6600 feet AGL
Weather: no significant weather observed at this time

METAR text: SOCA 221930Z AUTO 04013KT 360V060 9999 FEW023 SCT037 BKN070 28/23 Q1012 NOSIG
Conditions at: SOCA (CAYENNE/ROCHAMBE, GY) observed 1930 UTC 22 January 2019
Temperature: 28.0°C (82°F)
Dewpoint: 23.0°C (73°F) [RH = 74%]
Pressure (altimeter): 29.88 inches Hg (1012.0 mb)
Winds: from the NE (40 degrees) at 15 MPH (13 knots; 6.7 m/s)
Visibility: 6 or more miles (10+ km)
Ceiling: 7000 feet AGL
Clouds: few clouds at 2300 feet AGL
scattered clouds at 3700 feet AGL
broken clouds at 7000 feet AGL
Weather: no significant weather observed at this time

METAR text: SOCA 221900Z AUTO 04015KT 9999 FEW025 SCT045 BKN054 28/23 Q1013 NOSIG
Conditions at: SOCA (CAYENNE/ROCHAMBE, GY) observed 1900 UTC 22 January 2019
Temperature: 28.0°C (82°F)
Dewpoint: 23.0°C (73°F) [RH = 74%]
Pressure (altimeter): 29.91 inches Hg (1013.0 mb)
Winds: from the NE (40 degrees) at 17 MPH (15 knots; 7.7 m/s)
Visibility: 6 or more miles (10+ km)
Ceiling: 5400 feet AGL
Clouds: few clouds at 2500 feet AGL
scattered clouds at 4500 feet AGL
broken clouds at 5400 feet AGL
Weather: no significant weather observed at this time

METAR text: SOCA 221830Z AUTO 04014KT 010V070 9999 FEW024 SCT031 BKN048 28/23 Q1013 NOSIG
Conditions at: SOCA (CAYENNE/ROCHAMBE, GY) observed 1830 UTC 22 January 2019
Temperature: 28.0°C (82°F)
Dewpoint: 23.0°C (73°F) [RH = 74%]
Pressure (altimeter): 29.91 inches Hg (1013.0 mb)
Winds: from the NE (40 degrees) at 16 MPH (14 knots; 7.2 m/s)
Visibility: 6 or more miles (10+ km)
Ceiling: 4800 feet AGL
Clouds: few clouds at 2400 feet AGL
scattered clouds at 3100 feet AGL
broken clouds at 4800 feet AGL
Weather: no significant weather observed at this time

METAR text: SOCA 221800Z AUTO 04012KT 9999 FEW025 BKN074 29/23 Q1013 NOSIG
Conditions at: SOCA (CAYENNE/ROCHAMBE, GY) observed 1800 UTC 22 January 2019
Temperature: 29.0°C (84°F)
Dewpoint: 23.0°C (73°F) [RH = 70%]
Pressure (altimeter): 29.91 inches Hg (1013.0 mb)
Winds: from the NE (40 degrees) at 14 MPH (12 knots; 6.2 m/s)
Visibility: 6 or more miles (10+ km)
Ceiling: 7400 feet AGL
Clouds: few clouds at 2500 feet AGL
broken clouds at 7400 feet AGL
Weather: no significant weather observed at this time

METAR text: SOCA 221730Z AUTO 03015KT 9999 FEW027 SCT040 BKN048 29/22 Q1013 NOSIG
Conditions at: SOCA (CAYENNE/ROCHAMBE, GY) observed 1730 UTC 22 January 2019
Temperature: 29.0°C (84°F)
Dewpoint: 22.0°C (72°F) [RH = 66%]
Pressure (altimeter): 29.91 inches Hg (1013.0 mb)
Winds: from the NNE (30 degrees) at 17 MPH (15 knots; 7.7 m/s)
Visibility: 6 or more miles (10+ km)
Ceiling: 4800 feet AGL
Clouds: few clouds at 2700 feet AGL
scattered clouds at 4000 feet AGL
broken clouds at 4800 feet AGL
Weather: no significant weather observed at this time

METAR text: SOCA 221700Z AUTO 04012KT 9999 FEW025 BKN043 BKN056 28/23 Q1014 NOSIG
Conditions at: SOCA (CAYENNE/ROCHAMBE, GY) observed 1700 UTC 22 January 2019
Temperature: 28.0°C (82°F)
Dewpoint: 23.0°C (73°F) [RH = 74%]
Pressure (altimeter): 29.94 inches Hg (1014.0 mb)
Winds: from the NE (40 degrees) at 14 MPH (12 knots; 6.2 m/s)
Visibility: 6 or more miles (10+ km)
Ceiling: 4300 feet AGL
Clouds: few clouds at 2500 feet AGL
broken clouds at 4300 feet AGL
broken clouds at 5600 feet AGL
Weather: no significant weather observed at this time

METAR text: SOCA 221630Z AUTO 04016KT 9999 FEW025 BKN039 BKN048 28/23 Q1014 NOSIG
Conditions at: SOCA (CAYENNE/ROCHAMBE, GY) observed 1630 UTC 22 January 2019
Temperature: 28.0°C (82°F)
Dewpoint: 23.0°C (73°F) [RH = 74%]
Pressure (altimeter): 29.94 inches Hg (1014.0 mb)
Winds: from the NE (40 degrees) at 18 MPH (16 knots; 8.2 m/s)
Visibility: 6 or more miles (10+ km)
Ceiling: 3900 feet AGL
Clouds: few clouds at 2500 feet AGL
broken clouds at 3900 feet AGL
broken clouds at 4800 feet AGL
Weather: no significant weather observed at this time

METAR text: SOCA 221600Z AUTO 04014KT 9999 FEW028/// BKN037/// BKN047/// ///TCU 28/23 Q1015 BECMG SCT026 SCT055
Conditions at: SOCA (CAYENNE/ROCHAMBE, GY) observed 1600 UTC 22 January 2019
Temperature: 28.0°C (82°F)
Dewpoint: 23.0°C (73°F) [RH = 74%]
Pressure (altimeter): 29.97 inches Hg (1015.0 mb)
Winds: from the NE (40 degrees) at 16 MPH (14 knots; 7.2 m/s)
Visibility: 6 or more miles (10+ km)
Ceiling: 3700 feet AGL
Clouds: few clouds at 2800 feet AGL
broken clouds at 3700 feet AGL
broken clouds at 4700 feet AGL
Weather: no significant weather observed at this time

METAR text: SOCA 221530Z AUTO 04014KT 9999 FEW023/// SCT033/// BKN042/// 28/23 Q1015 NOSIG
Conditions at: SOCA (CAYENNE/ROCHAMBE, GY) observed 1530 UTC 22 January 2019
Temperature: 28.0°C (82°F)
Dewpoint: 23.0°C (73°F) [RH = 74%]
Pressure (altimeter): 29.97 inches Hg (1015.0 mb)
Winds: from the NE (40 degrees) at 16 MPH (14 knots; 7.2 m/s)
Visibility: 6 or more miles (10+ km)
Ceiling: 4200 feet AGL
Clouds: few clouds at 2300 feet AGL
scattered clouds at 3300 feet AGL
broken clouds at 4200 feet AGL
Weather: no significant weather observed at this time

METAR text: SOCA 221500Z AUTO 03011KT 350V050 9999 BKN020/// BKN036/// OVC050/// 27/24 Q1015 NOSIG
Conditions at: SOCA (CAYENNE/ROCHAMBE, GY) observed 1500 UTC 22 January 2019
Temperature: 27.0°C (81°F)
Dewpoint: 24.0°C (75°F) [RH = 84%]
Pressure (altimeter): 29.97 inches Hg (1015.0 mb)
Winds: from the NNE (30 degrees) at 13 MPH (11 knots; 5.7 m/s)
Visibility: 6 or more miles (10+ km)
Ceiling: 2000 feet AGL
Clouds: broken clouds at 2000 feet AGL
broken clouds at 3600 feet AGL
overcast cloud deck at 5000 feet AGL
Weather: no significant weather observed at this time

METAR text: SOCA 221430Z AUTO 04012KT 9999 SCT021/// BKN027/// BKN035/// 28/23 Q1016 NOSIG
Conditions at: SOCA (CAYENNE/ROCHAMBE, GY) observed 1430 UTC 22 January 2019
Temperature: 28.0°C (82°F)
Dewpoint: 23.0°C (73°F) [RH = 74%]
Pressure (altimeter): 30.00 inches Hg (1016.0 mb)
Winds: from the NE (40 degrees) at 14 MPH (12 knots; 6.2 m/s)
Visibility: 6 or more miles (10+ km)
Ceiling: 2700 feet AGL
Clouds: scattered clouds at 2100 feet AGL
broken clouds at 2700 feet AGL
broken clouds at 3500 feet AGL
Weather: no significant weather observed at this time

METAR text: SOCA 221400Z AUTO 04014KT 9999 FEW021/// SCT026/// OVC056/// 28/23 Q1016 NOSIG
Conditions at: SOCA (CAYENNE/ROCHAMBE, GY) observed 1400 UTC 22 January 2019
Temperature: 28.0°C (82°F)
Dewpoint: 23.0°C (73°F) [RH = 74%]
Pressure (altimeter): 30.00 inches Hg (1016.0 mb)
Winds: from the NE (40 degrees) at 16 MPH (14 knots; 7.2 m/s)
Visibility: 6 or more miles (10+ km)
Ceiling: 5600 feet AGL
Clouds: few clouds at 2100 feet AGL
scattered clouds at 2600 feet AGL
overcast cloud deck at 5600 feet AGL
Weather: no significant weather observed at this time

METAR text: SOCA 221330Z AUTO 03012KT 010V070 9999 BKN022/// BKN027/// BKN043/// 28/23 Q1016 NOSIG
Conditions at: SOCA (CAYENNE/ROCHAMBE, GY) observed 1330 UTC 22 January 2019
Temperature: 28.0°C (82°F)
Dewpoint: 23.0°C (73°F) [RH = 74%]
Pressure (altimeter): 30.00 inches Hg (1016.0 mb)
Winds: from the NNE (30 degrees) at 14 MPH (12 knots; 6.2 m/s)
Visibility: 6 or more miles (10+ km)
Ceiling: 2200 feet AGL
Clouds: broken clouds at 2200 feet AGL
broken clouds at 2700 feet AGL
broken clouds at 4300 feet AGL
Weather: no significant weather observed at this time

METAR text: SOCA 221300Z AUTO 04012KT 9999 BKN020/// BKN025/// BKN040/// 28/23 Q1015 NOSIG
Conditions at: SOCA (CAYENNE/ROCHAMBE, GY) observed 1300 UTC 22 January 2019
Temperature: 28.0°C (82°F)
Dewpoint: 23.0°C (73°F) [RH = 74%]
Pressure (altimeter): 29.97 inches Hg (1015.0 mb)
Winds: from the NE (40 degrees) at 14 MPH (12 knots; 6.2 m/s)
Visibility: 6 or more miles (10+ km)
Ceiling: 2000 feet AGL
Clouds: broken clouds at 2000 feet AGL
broken clouds at 2500 feet AGL
broken clouds at 4000 feet AGL
Weather: no significant weather observed at this time

METAR text: SOCA 221230Z AUTO 03011KT 360V060 9999 BKN019/// BKN024/// BKN030/// 27/23 Q1015 NOSIG
Conditions at: SOCA (CAYENNE/ROCHAMBE, GY) observed 1230 UTC 22 January 2019
Temperature: 27.0°C (81°F)
Dewpoint: 23.0°C (73°F) [RH = 79%]
Pressure (altimeter): 29.97 inches Hg (1015.0 mb)
Winds: from the NNE (30 degrees) at 13 MPH (11 knots; 5.7 m/s)
Visibility: 6 or more miles (10+ km)
Ceiling: 1900 feet AGL
Clouds: broken clouds at 1900 feet AGL
broken clouds at 2400 feet AGL
broken clouds at 3000 feet AGL
Weather: no significant weather observed at this time

METAR text: SOCA 221200Z AUTO 03011KT 9999 SCT021/// BKN026/// BKN032/// 27/23 Q1015 NOSIG
Conditions at: SOCA (CAYENNE/ROCHAMBE, GY) observed 1200 UTC 22 January 2019
Temperature: 27.0°C (81°F)
Dewpoint: 23.0°C (73°F) [RH = 79%]
Pressure (altimeter): 29.97 inches Hg (1015.0 mb)
Winds: from the NNE (30 degrees) at 13 MPH (11 knots; 5.7 m/s)
Visibility: 6 or more miles (10+ km)
Ceiling: 2600 feet AGL
Clouds: scattered clouds at 2100 feet AGL
broken clouds at 2600 feet AGL
broken clouds at 3200 feet AGL
Weather: no significant weather observed at this time

METAR text: SOCA 221130Z AUTO 03009KT 9999 FEW020 SCT037 BKN050 27/23 Q1015 NOSIG
Conditions at: SOCA (CAYENNE/ROCHAMBE, GY) observed 1130 UTC 22 January 2019
Temperature: 27.0°C (81°F)
Dewpoint: 23.0°C (73°F) [RH = 79%]
Pressure (altimeter): 29.97 inches Hg (1015.0 mb)
Winds: from the NNE (30 degrees) at 10 MPH (9 knots; 4.6 m/s)
Visibility: 6 or more miles (10+ km)
Ceiling: 5000 feet AGL
Clouds: few clouds at 2000 feet AGL
scattered clouds at 3700 feet AGL
broken clouds at 5000 feet AGL
Weather: no significant weather observed at this time

METAR text: SOCA 221100Z AUTO 03007KT 9999 FEW019 SCT025 BKN037 26/23 Q1014 NOSIG
Conditions at: SOCA (CAYENNE/ROCHAMBE, GY) observed 1100 UTC 22 January 2019
Temperature: 26.0°C (79°F)
Dewpoint: 23.0°C (73°F) [RH = 84%]
Pressure (altimeter): 29.94 inches Hg (1014.0 mb)
Winds: from the NNE (30 degrees) at 8 MPH (7 knots; 3.6 m/s)
Visibility: 6 or more miles (10+ km)
Ceiling: 3700 feet AGL
Clouds: few clouds at 1900 feet AGL
scattered clouds at 2500 feet AGL
broken clouds at 3700 feet AGL
Weather: no significant weather observed at this time

METAR text: SOCA 221030Z AUTO 03007KT 9999 SCT022/// BKN032/// BKN042/// ///TCU 26/23 Q1014 BECMG FEW030
Conditions at: SOCA (CAYENNE/ROCHAMBE, GY) observed 1030 UTC 22 January 2019
Temperature: 26.0°C (79°F)
Dewpoint: 23.0°C (73°F) [RH = 84%]
Pressure (altimeter): 29.94 inches Hg (1014.0 mb)
Winds: from the NNE (30 degrees) at 8 MPH (7 knots; 3.6 m/s)
Visibility: 6 or more miles (10+ km)
Ceiling: 3200 feet AGL
Clouds: scattered clouds at 2200 feet AGL
broken clouds at 3200 feet AGL
broken clouds at 4200 feet AGL
Weather: no significant weather observed at this time

METAR text: SOCA 221000Z AUTO 03006KT 9999 FEW024/// BKN037/// BKN043/// ///TCU 26/23 Q1014 TEMPO 4000 -SHRA BECMG FEW030
Conditions at: SOCA (CAYENNE/ROCHAMBE, GY) observed 1000 UTC 22 January 2019
Temperature: 26.0°C (79°F)
Dewpoint: 23.0°C (73°F) [RH = 84%]
Pressure (altimeter): 29.94 inches Hg (1014.0 mb)
Winds: from the NNE (30 degrees) at 7 MPH (6 knots; 3.1 m/s)
Visibility: 6 or more miles (10+ km)
Ceiling: 3700 feet AGL
Clouds: few clouds at 2400 feet AGL
broken clouds at 3700 feet AGL
broken clouds at 4300 feet AGL
Weather: no significant weather observed at this time

METAR text: SOCA 220930Z AUTO 03007KT 9999 FEW023 OVC072 26/23 Q1013 TEMPO 4000 -SHRA BKN007
Conditions at: SOCA (CAYENNE/ROCHAMBE, GY) observed 0930 UTC 22 January 2019
Temperature: 26.0°C (79°F)
Dewpoint: 23.0°C (73°F) [RH = 84%]
Pressure (altimeter): 29.91 inches Hg (1013.0 mb)
Winds: from the NNE (30 degrees) at 8 MPH (7 knots; 3.6 m/s)
Visibility: 6 or more miles (10+ km)
Ceiling: 7200 feet AGL
Clouds: few clouds at 2300 feet AGL
overcast cloud deck at 7200 feet AGL
Weather: no significant weather observed at this time

METAR text: SOCA 220900Z AUTO 03006KT 9999 -RA FEW024 SCT037 BKN044 26/23 Q1013 TEMPO 4000 -SHRA BKN007
Conditions at: SOCA (CAYENNE/ROCHAMBE, GY) observed 0900 UTC 22 January 2019
Temperature: 26.0°C (79°F)
Dewpoint: 23.0°C (73°F) [RH = 84%]
Pressure (altimeter): 29.91 inches Hg (1013.0 mb)
Winds: from the NNE (30 degrees) at 7 MPH (6 knots; 3.1 m/s)
Visibility: 6 or more miles (10+ km)
Ceiling: 4400 feet AGL
Clouds: few clouds at 2400 feet AGL
scattered clouds at 3700 feet AGL
broken clouds at 4400 feet AGL
Weather: -RA  (light rain)

METAR text: SOCA 220830Z AUTO 04007KT 9999 FEW022 BKN038 OVC064 26/23 Q1013 TEMPO 4000 -SHRA BKN007
Conditions at: SOCA (CAYENNE/ROCHAMBE, GY) observed 0830 UTC 22 January 2019
Temperature: 26.0°C (79°F)
Dewpoint: 23.0°C (73°F) [RH = 84%]
Pressure (altimeter): 29.91 inches Hg (1013.0 mb)
Winds: from the NE (40 degrees) at 8 MPH (7 knots; 3.6 m/s)
Visibility: 6 or more miles (10+ km)
Ceiling: 3800 feet AGL
Clouds: few clouds at 2200 feet AGL
broken clouds at 3800 feet AGL
overcast cloud deck at 6400 feet AGL
Weather: no significant weather observed at this time

METAR text: SOCA 220800Z AUTO 03008KT 360V060 9999 BKN024 BKN033 BKN041 26/23 Q1013 TEMPO 4000 -SHRA BKN007
Conditions at: SOCA (CAYENNE/ROCHAMBE, GY) observed 0800 UTC 22 January 2019
Temperature: 26.0°C (79°F)
Dewpoint: 23.0°C (73°F) [RH = 84%]
Pressure (altimeter): 29.91 inches Hg (1013.0 mb)
Winds: from the NNE (30 degrees) at 9 MPH (8 knots; 4.1 m/s)
Visibility: 6 or more miles (10+ km)
Ceiling: 2400 feet AGL
Clouds: broken clouds at 2400 feet AGL
broken clouds at 3300 feet AGL
broken clouds at 4100 feet AGL
Weather: no significant weather observed at this time

METAR text: SOCA 220730Z AUTO 03008KT 9999 FEW020 SCT026 BKN058 26/23 Q1013 TEMPO 4000 -SHRA BKN007
Conditions at: SOCA (CAYENNE/ROCHAMBE, GY) observed 0730 UTC 22 January 2019
Temperature: 26.0°C (79°F)
Dewpoint: 23.0°C (73°F) [RH = 84%]
Pressure (altimeter): 29.91 inches Hg (1013.0 mb)
Winds: from the NNE (30 degrees) at 9 MPH (8 knots; 4.1 m/s)
Visibility: 6 or more miles (10+ km)
Ceiling: 5800 feet AGL
Clouds: few clouds at 2000 feet AGL
scattered clouds at 2600 feet AGL
broken clouds at 5800 feet AGL
Weather: no significant weather observed at this time

METAR text: SOCA 220700Z AUTO 03007KT 9999 FEW020 BKN036 BKN045 26/23 Q1013 TEMPO 4000 -SHRA BKN007
Conditions at: SOCA (CAYENNE/ROCHAMBE, GY) observed 0700 UTC 22 January 2019
Temperature: 26.0°C (79°F)
Dewpoint: 23.0°C (73°F) [RH = 84%]
Pressure (altimeter): 29.91 inches Hg (1013.0 mb)
Winds: from the NNE (30 degrees) at 8 MPH (7 knots; 3.6 m/s)
Visibility: 6 or more miles (10+ km)
Ceiling: 3600 feet AGL
Clouds: few clouds at 2000 feet AGL
broken clouds at 3600 feet AGL
broken clouds at 4500 feet AGL
Weather: no significant weather observed at this time

METAR text: SOCA 220630Z AUTO 04008KT 9999 SCT019 BKN025 BKN031 25/23 Q1013 TEMPO 4000 -SHRA BKN007
Conditions at: SOCA (CAYENNE/ROCHAMBE, GY) observed 0630 UTC 22 January 2019
Temperature: 25.0°C (77°F)
Dewpoint: 23.0°C (73°F) [RH = 89%]
Pressure (altimeter): 29.91 inches Hg (1013.0 mb)
Winds: from the NE (40 degrees) at 9 MPH (8 knots; 4.1 m/s)
Visibility: 6 or more miles (10+ km)
Ceiling: 2500 feet AGL
Clouds: scattered clouds at 1900 feet AGL
broken clouds at 2500 feet AGL
broken clouds at 3100 feet AGL
Weather: no significant weather observed at this time

METAR text: SOCA 220600Z AUTO 04006KT 9999 BKN018 BKN026 OVC058 26/23 Q1013 TEMPO 4000 -SHRA BKN007
Conditions at: SOCA (CAYENNE/ROCHAMBE, GY) observed 0600 UTC 22 January 2019
Temperature: 26.0°C (79°F)
Dewpoint: 23.0°C (73°F) [RH = 84%]
Pressure (altimeter): 29.91 inches Hg (1013.0 mb)
Winds: from the NE (40 degrees) at 7 MPH (6 knots; 3.1 m/s)
Visibility: 6 or more miles (10+ km)
Ceiling: 1800 feet AGL
Clouds: broken clouds at 1800 feet AGL
broken clouds at 2600 feet AGL
overcast cloud deck at 5800 feet AGL
Weather: no significant weather observed at this time

METAR text: SOCA 220530Z AUTO 04007KT 9999 FEW020 SCT026 BKN047 26/23 Q1013 TEMPO 4000 -SHRA BKN007
Conditions at: SOCA (CAYENNE/ROCHAMBE, GY) observed 0530 UTC 22 January 2019
Temperature: 26.0°C (79°F)
Dewpoint: 23.0°C (73°F) [RH = 84%]
Pressure (altimeter): 29.91 inches Hg (1013.0 mb)
Winds: from the NE (40 degrees) at 8 MPH (7 knots; 3.6 m/s)
Visibility: 6 or more miles (10+ km)
Ceiling: 4700 feet AGL
Clouds: few clouds at 2000 feet AGL
scattered clouds at 2600 feet AGL
broken clouds at 4700 feet AGL
Weather: no significant weather observed at this time

METAR text: SOCA 220500Z AUTO 05007KT 9999 BKN020 BKN029 BKN039 26/23 Q1013 TEMPO 4000 -SHRA BKN007
Conditions at: SOCA (CAYENNE/ROCHAMBE, GY) observed 0500 UTC 22 January 2019
Temperature: 26.0°C (79°F)
Dewpoint: 23.0°C (73°F) [RH = 84%]
Pressure (altimeter): 29.91 inches Hg (1013.0 mb)
Winds: from the NE (50 degrees) at 8 MPH (7 knots; 3.6 m/s)
Visibility: 6 or more miles (10+ km)
Ceiling: 2000 feet AGL
Clouds: broken clouds at 2000 feet AGL
broken clouds at 2900 feet AGL
broken clouds at 3900 feet AGL
Weather: no significant weather observed at this time

METAR text: SOCA 220430Z AUTO 05007KT 9999 BKN019 BKN028 BKN036 26/23 Q1013 TEMPO 4000 -SHRA BKN007
Conditions at: SOCA (CAYENNE/ROCHAMBE, GY) observed 0430 UTC 22 January 2019
Temperature: 26.0°C (79°F)
Dewpoint: 23.0°C (73°F) [RH = 84%]
Pressure (altimeter): 29.91 inches Hg (1013.0 mb)
Winds: from the NE (50 degrees) at 8 MPH (7 knots; 3.6 m/s)
Visibility: 6 or more miles (10+ km)
Ceiling: 1900 feet AGL
Clouds: broken clouds at 1900 feet AGL
broken clouds at 2800 feet AGL
broken clouds at 3600 feet AGL
Weather: no significant weather observed at this time

METAR text: SOCA 220400Z AUTO 04007KT 9999 SCT019 BKN026 BKN036 26/23 Q1014 TEMPO 4000 -SHRA BKN007
Conditions at: SOCA (CAYENNE/ROCHAMBE, GY) observed 0400 UTC 22 January 2019
Temperature: 26.0°C (79°F)
Dewpoint: 23.0°C (73°F) [RH = 84%]
Pressure (altimeter): 29.94 inches Hg (1014.0 mb)
Winds: from the NE (40 degrees) at 8 MPH (7 knots; 3.6 m/s)
Visibility: 6 or more miles (10+ km)
Ceiling: 2600 feet AGL
Clouds: scattered clouds at 1900 feet AGL
broken clouds at 2600 feet AGL
broken clouds at 3600 feet AGL
Weather: no significant weather observed at this time

METAR text: SOCA 220330Z AUTO 05007KT 9999 SCT022 BKN028 BKN039 26/23 Q1014 TEMPO 4000 -SHRA BKN007
Conditions at: SOCA (CAYENNE/ROCHAMBE, GY) observed 0330 UTC 22 January 2019
Temperature: 26.0°C (79°F)
Dewpoint: 23.0°C (73°F) [RH = 84%]
Pressure (altimeter): 29.94 inches Hg (1014.0 mb)
Winds: from the NE (50 degrees) at 8 MPH (7 knots; 3.6 m/s)
Visibility: 6 or more miles (10+ km)
Ceiling: 2800 feet AGL
Clouds: scattered clouds at 2200 feet AGL
broken clouds at 2800 feet AGL
broken clouds at 3900 feet AGL
Weather: no significant weather observed at this time

Forecast for: SOCA (CAYENNE/ROCHAMBE, GY)
Text: TAF SOCA 231000Z 2312/2412 05012KT 9999 SCT023
Forecast period: 1200 to 2200 UTC 23 January 2019
Forecast type: FROM: standard forecast or significant change
Winds: from the NE (50 degrees) at 14 MPH (12 knots; 6.2 m/s)
Visibility: 6 or more miles 10+ km)
Ceiling: at least 12,000 feet AGL
Clouds: scattered clouds at 2300 feet AGL
Weather: no significant weather forecast for this period
Text: TEMPO 2315/2321 3000 SHRA FEW015TCU
Forecast period: 1500 to 2100 UTC 23 January 2019
Forecast type: TEMPORARY: The following changes expected for less than half the time period
Visibility: 1.86 miles (2.99 km)
Ceiling: at least 12,000 feet AGL
Clouds: few clouds at 1500 feet AGL
Weather: SHRA  (rain showers)
Text: PROB30
Forecast period: 1800 to 2100 UTC 23 January 2019
Forecast type: TEMPORARY: The following changes expected for less than half the time period
Visibility: missing
Ceiling: at least 12,000 feet AGL
Clouds: few clouds at 1200 feet AGL
Weather: TSRA  (rain associated with thunderstorm(s))
Text: TEMPO 2318/2321 TSRA FEW012CB
Forecast period: 2200 UTC 23 January 2019 to 1200 UTC 24 January 2019
Forecast type: FROM: standard forecast or significant change
Winds: variable direction winds at 2 MPH (2 knots; 1.0 m/s)
Visibility: 6 or more miles 10+ km)
Ceiling: at least 12,000 feet AGL
Clouds: few clouds at 2000 feet AGL
Weather: no significant weather forecast for this period
Text: FM232200 VRB02KT 9999 FEW020
Forecast period: 0600 to 1200 UTC 24 January 2019
Forecast type: TEMPORARY: The following changes expected for less than half the time period
Visibility: 1.86 miles (2.99 km)
Ceiling: unknown
Clouds: missing
Weather: SHRA  (rain showers)